Startpagina
METAR-TAF:

METAR-TAF

Vliegvelden :

Cuzco, Peru

breedte: 13-33S, lengte: 071-59W, hoogte: 3248 m

Actueel weer

Dit bericht is 35 minuten geleden gemaakt, om 13:30 UTC
Wind 1 kt uit het zuidzuidwesten
Temperatuur 13°C
Vochtigheid 62%
Druk 1035 hPa
Zicht 10 km of meer
Weinig wolken op 4000 ft
Verspreide wolken op 10000 ft

METAR: SPZO 101330Z 21001KT 9999 FEW040 SCT100 13/06 Q1035 NOSIG RMK BIRD HAZARD RWY 28

Tijdstip: 09:05 (14:05 UTC)

Verwachting

Dit bericht is 1 uur en het 5 minuten geleden gemaakt, om 13:00 UTC
Verwachting geldig van 10 om 12 UTC tot 11 om 12 UTC
Wind 3 kt uit het oosten
Zicht 10 km of meer
Verspreide wolken op 4000 ft
Verspreide wolken op 8000 ft
Tijdelijke
van 10 om 18 UTC tot 10 om 23 UTC
Wind 10 kt uit het westen
Weinig wolken op 4000 ft, Stapelwolken.
Verspreide wolken op 8000 ft

TAF: SPZO 101300Z 1012/1112 09003KT 9999 SCT040 SCT080 TX22/1019Z TN06/1111Z TEMPO 1018/1023 28010KT FEW040TCU SCT080

Waarnemingen en weersverwachtingen van meer dan 4000 vliegvelden (METAR en TAF).

De beschikbare stations zijn de gele en rode punten op de kaart.

Ga met uw muis naar het station om de naam te zien.

Klik dan om waarnemingen en weersverwachtingen te zien.

kaart wijzigen: klik op de groene knoppen met een zwart kruis om in te zoomen, op de groene knop met een streepje om uit te zoomen of op de groene pijlen voor aangrenzende kaarten.


METAR-TAF: